createdAt,value
2019-06-26T00:00:36.612Z,98317.55
2019-06-26T00:03:09.071Z,98322.11
2019-06-26T00:05:42.296Z,98324.08
2019-06-26T00:08:14.535Z,98324.59
2019-06-26T00:10:47.347Z,98328.20
2019-06-26T00:13:26.040Z,98330.47
2019-06-26T00:15:53.727Z,98333.91
2019-06-26T00:18:26.303Z,98332.61
2019-06-26T00:20:58.733Z,98331.31
2019-06-26T00:23:31.453Z,98338.02
2019-06-26T00:26:03.671Z,98341.00
2019-06-26T00:28:35.907Z,98340.84
2019-06-26T00:31:08.145Z,98337.41
2019-06-26T00:33:41.055Z,98337.42
2019-06-26T00:36:13.736Z,98335.45
2019-06-26T00:38:45.972Z,98335.62
2019-06-26T00:41:18.357Z,98339.86
2019-06-26T00:43:50.550Z,98337.90
2019-06-26T00:46:23.350Z,98336.27
2019-06-26T00:48:55.929Z,98339.39
2019-06-26T00:51:28.787Z,98339.37
2019-06-26T00:54:02.289Z,98335.80
2019-06-26T00:56:34.531Z,98340.05
2019-06-26T00:59:07.338Z,98343.47
2019-06-26T01:01:39.619Z,98341.18
2019-06-26T01:04:16.416Z,98341.86
2019-06-26T01:06:49.541Z,98338.27
2019-06-26T01:09:21.778Z,98341.22
2019-06-26T01:11:54.456Z,98340.23
2019-06-26T01:14:26.748Z,98339.24
2019-06-26T01:16:59.310Z,98344.81
2019-06-26T01:19:31.668Z,98349.03
2019-06-26T01:22:03.910Z,98348.21
2019-06-26T01:24:36.152Z,98344.78
2019-06-26T01:27:08.396Z,98346.75
2019-06-26T01:29:41.088Z,98346.09
2019-06-26T01:32:14.793Z,98347.23
2019-06-26T01:34:47.057Z,98345.30
2019-06-26T01:37:19.282Z,98350.34
2019-06-26T01:39:51.530Z,98346.09
2019-06-26T01:42:23.768Z,98347.23
2019-06-26T01:44:56.377Z,98344.95
2019-06-26T01:47:28.946Z,98345.44
2019-06-26T01:50:01.526Z,98346.73
2019-06-26T01:52:33.752Z,98345.09
2019-06-26T01:55:06.829Z,98342.83
2019-06-26T01:57:39.466Z,98344.12
2019-06-26T02:00:14.136Z,98349.34
2019-06-26T02:02:46.931Z,98351.47
2019-06-26T02:05:19.296Z,98348.33
2019-06-26T02:07:51.991Z,98350.28
2019-06-26T02:10:24.482Z,98353.08
2019-06-26T02:12:57.635Z,98353.39
2019-06-26T02:15:29.873Z,98356.34
2019-06-26T02:18:02.557Z,98356.50
2019-06-26T02:20:35.259Z,98351.59
2019-06-26T02:23:07.932Z,98355.83
2019-06-26T02:25:40.176Z,98356.81
2019-06-26T02:28:12.744Z,98359.44
2019-06-26T02:30:45.766Z,98355.03
2019-06-26T02:33:18.275Z,98356.33
2019-06-26T02:35:50.965Z,98362.05
2019-06-26T02:38:23.208Z,98363.02
2019-06-26T02:40:55.982Z,98361.20
2019-06-26T02:43:28.649Z,98367.07
2019-06-26T02:46:01.793Z,98361.48
2019-06-26T02:48:34.366Z,98364.39
2019-06-26T02:51:07.153Z,98362.23
2019-06-26T02:53:40.025Z,98367.42
2019-06-26T02:56:12.824Z,98364.80
2019-06-26T02:58:45.055Z,98364.62
2019-06-26T03:01:17.323Z,98366.23
2019-06-26T03:03:49.983Z,98363.33
2019-06-26T03:06:22.434Z,98365.42
2019-06-26T03:08:54.764Z,98369.16
2019-06-26T03:11:27.561Z,98361.47
2019-06-26T03:14:00.125Z,98365.06
2019-06-26T03:16:32.369Z,98369.11
2019-06-26T03:19:04.714Z,98368.59
2019-06-26T03:21:36.959Z,98371.83
2019-06-26T03:24:09.638Z,98373.01
2019-06-26T03:26:42.210Z,98370.11
2019-06-26T03:29:14.775Z,98365.70
2019-06-26T03:31:47.123Z,98369.78
2019-06-26T03:34:19.365Z,98371.10
2019-06-26T03:36:51.599Z,98366.22
2019-06-26T03:39:23.849Z,98371.97
2019-06-26T03:41:56.919Z,98367.39
2019-06-26T03:44:29.125Z,98370.02
2019-06-26T03:47:01.384Z,98368.56
2019-06-26T03:49:33.623Z,98368.75
2019-06-26T03:52:06.316Z,98370.73
2019-06-26T03:54:39.104Z,98370.73
2019-06-26T03:57:11.680Z,98370.25
2019-06-26T03:59:43.920Z,98370.62
2019-06-26T04:02:16.617Z,98374.69
2019-06-26T04:04:48.858Z,98376.83
2019-06-26T04:07:21.105Z,98382.24
2019-06-26T04:09:53.404Z,98378.33
2019-06-26T04:12:25.653Z,98380.30
2019-06-26T04:14:58.341Z,98375.41
2019-06-26T04:17:30.904Z,98379.36
2019-06-26T04:20:03.593Z,98381.02
2019-06-26T04:22:35.840Z,98383.80
2019-06-26T04:25:08.968Z,98377.43
2019-06-26T04:27:41.982Z,98380.55
2019-06-26T04:30:15.686Z,98385.78
2019-06-26T04:32:48.365Z,98387.75
2019-06-26T04:35:21.246Z,98392.64
2019-06-26T04:37:53.510Z,98391.84
2019-06-26T04:40:26.177Z,98387.92
2019-06-26T04:42:58.871Z,98384.95
2019-06-26T04:45:31.101Z,98388.34
2019-06-26T04:48:06.924Z,98391.60
2019-06-26T04:50:37.661Z,98390.94
2019-06-26T04:53:10.454Z,98389.12
2019-06-26T04:55:43.144Z,98398.27
2019-06-26T04:58:15.837Z,98392.33
2019-06-26T05:00:48.406Z,98385.27
2019-06-26T05:03:20.660Z,98389.15
2019-06-26T05:05:53.352Z,98396.45
2019-06-26T05:08:26.029Z,98396.89
2019-06-26T05:10:58.873Z,98394.88
2019-06-26T05:13:31.101Z,98394.00
2019-06-26T05:16:14.305Z,98396.90
2019-06-26T05:18:37.656Z,98398.13
2019-06-26T05:21:09.899Z,98402.97
2019-06-26T05:23:42.587Z,98403.06
2019-06-26T05:26:15.672Z,98403.66
2019-06-26T05:28:47.918Z,98402.75
2019-06-26T05:31:21.196Z,98400.27
2019-06-26T05:33:54.218Z,98401.66
2019-06-26T05:36:26.461Z,98404.88
2019-06-26T05:38:59.050Z,98404.94
2019-06-26T05:41:31.619Z,98410.22
2019-06-26T05:44:04.073Z,98411.44
2019-06-26T05:46:36.761Z,98410.16
2019-06-26T05:49:09.116Z,98409.76
2019-06-26T05:51:41.361Z,98409.98
2019-06-26T05:54:13.606Z,98414.13
2019-06-26T05:56:45.855Z,98415.31
2019-06-26T05:59:18.538Z,98418.80
2019-06-26T06:01:50.783Z,98414.60
2019-06-26T06:04:23.232Z,98417.58
2019-06-26T06:06:55.471Z,98422.69
2019-06-26T06:09:28.514Z,98428.08
2019-06-26T06:12:00.878Z,98423.16
2019-06-26T06:14:33.607Z,98426.24
2019-06-26T06:17:05.951Z,98426.22
2019-06-26T06:19:38.195Z,98427.00
2019-06-26T06:22:10.437Z,98426.81
2019-06-26T06:24:43.005Z,98427.41
2019-06-26T06:27:15.576Z,98431.78
2019-06-26T06:29:48.269Z,98432.36
2019-06-26T06:32:20.507Z,98436.52
2019-06-26T06:34:53.195Z,98442.58
2019-06-26T06:37:25.784Z,98438.72
2019-06-26T06:39:58.034Z,98435.53
2019-06-26T06:42:30.274Z,98436.79
2019-06-26T06:45:03.051Z,98442.64
2019-06-26T06:47:35.292Z,98446.69
2019-06-26T06:50:08.553Z,98445.61
2019-06-26T06:52:41.458Z,98448.36
2019-06-26T06:55:13.904Z,98454.27
2019-06-26T06:57:46.153Z,98444.28
2019-06-26T07:00:19.659Z,98452.39
2019-06-26T07:02:52.450Z,98448.50
2019-06-26T07:05:25.127Z,98453.27
2019-06-26T07:07:57.369Z,98454.56
2019-06-26T07:10:29.944Z,98456.87
2019-06-26T07:13:02.780Z,98463.42
2019-06-26T07:15:35.168Z,98461.46
2019-06-26T07:18:07.836Z,98459.98
2019-06-26T07:20:44.344Z,98462.63
2019-06-26T07:23:14.719Z,98466.13
2019-06-26T07:25:47.408Z,98464.00
2019-06-26T07:28:20.028Z,98466.86
2019-06-26T07:30:52.462Z,98462.09
2019-06-26T07:33:24.706Z,98469.09
2019-06-26T07:35:56.957Z,98458.22
2019-06-26T07:38:29.193Z,98465.50
2019-06-26T07:41:01.445Z,98470.45
2019-06-26T07:43:33.686Z,98467.28
2019-06-26T07:46:06.161Z,98471.22
2019-06-26T07:48:38.861Z,98469.52
2019-06-26T07:51:11.554Z,98470.82
2019-06-26T07:53:43.807Z,98465.98
2019-06-26T07:56:16.063Z,98470.84
2019-06-26T07:58:48.313Z,98469.52
2019-06-26T08:01:21.308Z,98468.11
2019-06-26T08:03:55.087Z,98468.73
2019-06-26T08:06:28.106Z,98472.31
2019-06-26T08:09:00.394Z,98463.89
2019-06-26T08:11:32.644Z,98468.06
2019-06-26T08:14:05.083Z,98466.77
2019-06-26T08:16:38.118Z,98466.72
2019-06-26T08:19:10.352Z,98463.55
2019-06-26T08:21:45.706Z,98465.48
2019-06-26T08:24:16.812Z,98467.65
2019-06-26T08:26:49.495Z,98469.44
2019-06-26T08:29:22.184Z,98471.44
2019-06-26T08:31:54.974Z,98470.82
2019-06-26T08:34:27.659Z,98463.54
2019-06-26T08:37:00.244Z,98462.52
2019-06-26T08:39:32.494Z,98466.48
2019-06-26T08:42:04.723Z,98455.86
2019-06-26T08:44:36.971Z,98456.80
2019-06-26T08:47:09.668Z,98452.39
2019-06-26T08:49:41.904Z,98450.55
2019-06-26T08:52:14.350Z,98449.28
2019-06-26T08:54:46.931Z,98449.16
2019-06-26T08:57:19.197Z,98447.33
2019-06-26T08:59:51.880Z,98441.83
2019-06-26T09:02:24.132Z,98445.94
2019-06-26T09:04:56.712Z,98442.35
2019-06-26T09:07:29.062Z,98445.91
2019-06-26T09:10:02.060Z,98447.03
2019-06-26T09:12:34.247Z,98446.38
2019-06-26T09:15:06.817Z,98441.91
2019-06-26T09:17:39.077Z,98441.59
2019-06-26T09:20:12.051Z,98442.90
2019-06-26T09:22:44.620Z,98443.83
2019-06-26T09:25:22.158Z,98447.11
2019-06-26T09:27:51.175Z,98445.64
2019-06-26T09:30:23.606Z,98441.70
2019-06-26T09:32:56.171Z,98441.43
2019-06-26T09:35:28.858Z,98440.81
2019-06-26T09:38:01.113Z,98433.55
2019-06-26T09:40:33.767Z,98436.47
2019-06-26T09:43:06.016Z,98434.98
2019-06-26T09:45:39.042Z,98434.55
2019-06-26T09:48:12.144Z,98427.16
2019-06-26T09:50:44.524Z,98427.64
2019-06-26T09:53:17.065Z,98429.83
2019-06-26T09:55:49.628Z,98429.90
2019-06-26T09:58:22.206Z,98423.84
2019-06-26T10:00:55.117Z,98425.46
2019-06-26T10:03:28.231Z,98419.86
2019-06-26T10:06:00.470Z,98416.17
2019-06-26T10:08:33.656Z,98418.85
2019-06-26T10:11:06.492Z,98412.99
2019-06-26T10:13:38.840Z,98416.71
2019-06-26T10:16:11.739Z,98415.88
2019-06-26T10:18:44.428Z,98409.19
2019-06-26T10:21:17.120Z,98411.84
2019-06-26T10:23:50.140Z,98411.91
2019-06-26T10:26:22.389Z,98410.84
2019-06-26T10:28:55.086Z,98404.83
2019-06-26T10:31:28.100Z,98398.15
2019-06-26T10:34:00.711Z,98396.83
2019-06-26T10:36:32.927Z,98401.61
2019-06-26T10:39:07.184Z,98398.45
2019-06-26T10:41:39.533Z,98392.30
2019-06-26T10:44:12.160Z,98393.80
2019-06-26T10:46:44.846Z,98389.12
2019-06-26T10:49:26.816Z,98391.77
2019-06-26T10:51:51.044Z,98388.94
2019-06-26T10:54:23.292Z,98385.63
2019-06-26T10:56:56.407Z,98385.11
2019-06-26T10:59:30.087Z,98377.14
2019-06-26T11:02:02.443Z,98374.33
2019-06-26T11:04:35.216Z,98368.92
2019-06-26T11:07:07.807Z,98367.12
2019-06-26T11:09:40.627Z,98364.06
2019-06-26T11:12:13.009Z,98357.06
2019-06-26T11:14:45.729Z,98359.84
2019-06-26T11:17:18.298Z,98351.28
2019-06-26T11:19:50.929Z,98347.23
2019-06-26T11:22:23.943Z,98347.55
2019-06-26T11:24:56.634Z,98349.19
2019-06-26T11:27:29.319Z,98347.83
2019-06-26T11:30:01.957Z,98341.30
2019-06-26T11:32:34.679Z,98335.30
2019-06-26T11:35:08.089Z,98333.43
2019-06-26T11:37:40.449Z,98340.86
2019-06-26T11:40:13.457Z,98336.47
2019-06-26T11:42:45.801Z,98338.77
2019-06-26T11:45:19.433Z,98337.83
2019-06-26T11:47:52.453Z,98331.33
2019-06-26T11:50:25.709Z,98333.45
2019-06-26T11:52:57.953Z,98339.89
2019-06-26T11:55:30.291Z,98337.62
2019-06-26T11:58:02.887Z,98334.17
2019-06-26T12:00:35.125Z,98323.19
2019-06-26T12:03:07.524Z,98330.07
2019-06-26T12:05:40.232Z,98324.16
2019-06-26T12:08:14.151Z,98324.91
2019-06-26T12:10:46.394Z,98316.96
2019-06-26T12:13:18.755Z,98312.73
2019-06-26T12:15:52.069Z,98309.93
2019-06-26T12:18:24.341Z,98310.39
2019-06-26T12:20:57.248Z,98313.55
2019-06-26T12:23:29.823Z,98307.84
2019-06-26T12:26:02.091Z,98309.51
2019-06-26T12:28:35.290Z,98309.00
2019-06-26T12:31:07.531Z,98304.97
2019-06-26T12:33:40.228Z,98302.16
2019-06-26T12:36:12.481Z,98301.45
2019-06-26T12:38:45.174Z,98299.31
2019-06-26T12:41:17.423Z,98300.93
2019-06-26T12:43:49.667Z,98297.39
2019-06-26T12:46:22.244Z,98295.81
2019-06-26T12:48:54.474Z,98288.56
2019-06-26T12:51:27.283Z,98287.55
2019-06-26T12:54:00.062Z,98288.12
2019-06-26T12:56:32.379Z,98280.28
2019-06-26T12:59:04.614Z,98285.66
2019-06-26T13:01:36.854Z,98286.47
2019-06-26T13:04:09.542Z,98283.02
2019-06-26T13:06:42.246Z,98282.98
2019-06-26T13:09:14.978Z,98280.86
2019-06-26T13:11:47.317Z,98279.58
2019-06-26T13:14:19.553Z,98276.55
2019-06-26T13:16:52.336Z,98273.16
2019-06-26T13:19:24.517Z,98270.84
2019-06-26T13:21:57.217Z,98263.41
2019-06-26T13:24:29.546Z,98260.28
2019-06-26T13:27:02.163Z,98260.73
2019-06-26T13:29:34.803Z,98262.36
2019-06-26T13:32:07.855Z,98262.81
2019-06-26T13:34:40.252Z,98261.92
2019-06-26T13:37:13.633Z,98262.30
2019-06-26T13:39:50.612Z,98261.52
2019-06-26T13:42:22.856Z,98255.89
2019-06-26T13:44:55.754Z,98251.37
2019-06-26T13:47:28.333Z,98249.19
2019-06-26T13:50:00.889Z,98247.97
2019-06-26T13:52:33.563Z,98243.17
2019-06-26T13:55:07.259Z,98241.03
2019-06-26T13:57:39.820Z,98231.75
2019-06-26T14:00:14.756Z,98234.88
2019-06-26T14:02:47.335Z,98234.08
2019-06-26T14:05:19.978Z,98235.59
2019-06-26T14:07:52.227Z,98233.41
2019-06-26T14:10:24.550Z,98234.72
2019-06-26T14:12:56.872Z,98236.61
2019-06-26T14:15:29.582Z,98230.16
2019-06-26T14:18:02.657Z,98232.91
2019-06-26T14:20:34.897Z,98227.31
2019-06-26T14:23:07.146Z,98224.22
2019-06-26T14:25:39.594Z,98230.43
2019-06-26T14:28:12.253Z,98224.38
2019-06-26T14:30:45.100Z,98222.64
2019-06-26T14:33:18.305Z,98223.23
2019-06-26T14:35:51.206Z,98230.05
2019-06-26T14:38:24.234Z,98226.72
2019-06-26T14:40:57.833Z,98224.50
2019-06-26T14:43:30.861Z,98224.81
2019-06-26T14:46:03.865Z,98211.48
2019-06-26T14:48:36.782Z,98217.52
2019-06-26T14:51:09.799Z,98214.66
2019-06-26T14:53:42.363Z,98219.02
2019-06-26T14:56:15.153Z,98213.41
2019-06-26T14:58:47.402Z,98216.38
2019-06-26T15:01:20.293Z,98214.83
2019-06-26T15:03:54.172Z,98213.78
2019-06-26T15:06:26.485Z,98213.52
2019-06-26T15:08:58.770Z,98208.98
2019-06-26T15:11:31.000Z,98205.47
2019-06-26T15:14:03.714Z,98212.89
2019-06-26T15:16:36.270Z,98201.54
2019-06-26T15:19:09.424Z,98205.62
2019-06-26T15:21:48.639Z,98206.50
2019-06-26T15:24:16.335Z,98199.24
2019-06-26T15:26:48.584Z,98197.08
2019-06-26T15:29:20.844Z,98195.56
2019-06-26T15:31:53.540Z,98195.66
2019-06-26T15:34:26.403Z,98193.39
2019-06-26T15:36:58.636Z,98188.05
2019-06-26T15:39:31.654Z,98184.33
2019-06-26T15:42:04.338Z,98183.30
2019-06-26T15:44:37.593Z,98181.98
2019-06-26T15:47:10.260Z,98176.84
2019-06-26T15:49:42.955Z,98176.16
2019-06-26T15:52:15.710Z,98173.40
2019-06-26T15:54:48.182Z,98173.34
2019-06-26T15:57:20.766Z,98174.33
2019-06-26T15:59:53.002Z,98173.90
2019-06-26T16:02:25.757Z,98176.11
2019-06-26T16:04:58.326Z,98175.36
2019-06-26T16:07:30.563Z,98173.13
2019-06-26T16:10:03.757Z,98172.91
2019-06-26T16:12:37.470Z,98172.84
2019-06-26T16:15:10.823Z,98172.09
2019-06-26T16:17:59.047Z,98177.27
2019-06-26T16:20:31.791Z,98179.45
2019-06-26T16:23:04.030Z,98180.83
2019-06-26T16:25:36.386Z,98176.75
2019-06-26T16:28:08.628Z,98180.12
2019-06-26T16:30:40.867Z,98178.56
2019-06-26T16:33:13.494Z,98177.98
2019-06-26T16:35:45.735Z,98174.67
2019-06-26T16:38:17.976Z,98170.17
2019-06-26T16:40:50.662Z,98174.89
2019-06-26T16:43:23.343Z,98168.22
2019-06-26T16:45:56.488Z,98172.70
2019-06-26T16:48:28.726Z,98176.00
2019-06-26T16:51:01.413Z,98174.78
2019-06-26T16:53:35.561Z,98173.30
2019-06-26T16:56:08.775Z,98171.59
2019-06-26T16:58:41.862Z,98169.31
2019-06-26T17:01:14.649Z,98171.54
2019-06-26T17:03:46.902Z,98172.02
2019-06-26T17:06:19.943Z,98171.45
2019-06-26T17:08:52.254Z,98172.62
2019-06-26T17:11:25.207Z,98171.87
2019-06-26T17:13:57.544Z,98177.30
2019-06-26T17:16:29.784Z,98176.25
2019-06-26T17:19:02.020Z,98174.59
2019-06-26T17:21:34.377Z,98174.63
2019-06-26T17:24:07.041Z,98180.91
2019-06-26T17:26:39.286Z,98180.81
2019-06-26T17:29:12.408Z,98186.17
2019-06-26T17:31:44.648Z,98184.47
2019-06-26T17:34:17.022Z,98188.55
2019-06-26T17:36:49.716Z,98188.28
2019-06-26T17:39:22.058Z,98192.17
2019-06-26T17:41:56.102Z,98184.08
2019-06-26T17:44:29.116Z,98190.95
2019-06-26T17:47:05.158Z,98186.91
2019-06-26T17:49:35.221Z,98191.53
2019-06-26T17:52:07.578Z,98194.83
2019-06-26T17:54:39.813Z,98196.22
2019-06-26T17:57:12.500Z,98194.24
2019-06-26T17:59:46.108Z,98193.91
2019-06-26T18:02:19.257Z,98191.26
2019-06-26T18:04:53.170Z,98189.20
2019-06-26T18:07:25.772Z,98191.49
2019-06-26T18:09:58.378Z,98195.30
2019-06-26T18:12:30.668Z,98192.44
2019-06-26T18:15:02.980Z,98195.27
2019-06-26T18:17:35.266Z,98198.38
2019-06-26T18:20:08.384Z,98199.04
2019-06-26T18:22:41.658Z,98208.69
2019-06-26T18:25:16.754Z,98205.52
2019-06-26T18:27:49.269Z,98208.58
2019-06-26T18:30:22.881Z,98208.11
2019-06-26T18:32:55.735Z,98206.30
2019-06-26T18:35:27.978Z,98209.72
2019-06-26T18:38:01.448Z,98205.25
2019-06-26T18:40:34.139Z,98204.69
2019-06-26T18:43:06.581Z,98209.36
2019-06-26T18:45:38.827Z,98209.83
2019-06-26T18:48:11.525Z,98211.40
2019-06-26T18:50:43.876Z,98203.84
2019-06-26T18:53:16.313Z,98206.55
2019-06-26T18:55:48.567Z,98207.97
2019-06-26T18:58:20.856Z,98209.17
2019-06-26T19:00:53.640Z,98206.88
2019-06-26T19:03:26.404Z,98211.32
2019-06-26T19:05:59.091Z,98213.34
2019-06-26T19:08:32.250Z,98208.20
2019-06-26T19:11:04.987Z,98215.54
2019-06-26T19:13:37.775Z,98216.84
2019-06-26T19:16:10.340Z,98217.80
2019-06-26T19:18:43.486Z,98219.17
2019-06-26T19:21:16.562Z,98223.83
2019-06-26T19:23:49.597Z,98224.74
2019-06-26T19:26:21.842Z,98224.09
2019-06-26T19:28:54.547Z,98226.77
2019-06-26T19:31:27.093Z,98226.42
2019-06-26T19:33:59.328Z,98225.61
2019-06-26T19:36:31.681Z,98230.27
2019-06-26T19:39:05.634Z,98230.83
2019-06-26T19:41:38.730Z,98233.48
2019-06-26T19:44:11.415Z,98233.72
2019-06-26T19:46:43.988Z,98237.23
2019-06-26T19:49:16.670Z,98239.75
2019-06-26T19:51:48.921Z,98241.00
2019-06-26T19:54:27.010Z,98241.81
2019-06-26T19:56:56.784Z,98242.03
2019-06-26T19:59:29.075Z,98241.52
2019-06-26T20:02:01.333Z,98248.63
2019-06-26T20:04:34.022Z,98247.01
2019-06-26T20:07:06.904Z,98251.81
2019-06-26T20:09:39.634Z,98253.08
2019-06-26T20:12:11.866Z,98258.69
2019-06-26T20:14:44.563Z,98258.66
2019-06-26T20:17:17.583Z,98258.34
2019-06-26T20:19:50.161Z,98259.78
2019-06-26T20:22:23.055Z,98261.73
2019-06-26T20:24:57.433Z,98265.63
2019-06-26T20:27:29.170Z,98267.39
2019-06-26T20:30:01.523Z,98267.59
2019-06-26T20:32:35.125Z,98264.95
2019-06-26T20:35:07.935Z,98271.27
2019-06-26T20:37:40.618Z,98275.27
2019-06-26T20:40:14.087Z,98275.34
2019-06-26T20:42:46.985Z,98269.44
2019-06-26T20:45:19.634Z,98269.95
2019-06-26T20:47:51.881Z,98272.59
2019-06-26T20:50:24.594Z,98274.59
2019-06-26T20:52:57.916Z,98275.80
2019-06-26T20:55:30.824Z,98275.62
2019-06-26T20:58:03.946Z,98278.08
2019-06-26T21:00:36.199Z,98275.86
2019-06-26T21:03:08.435Z,98275.21
2019-06-26T21:05:41.571Z,98274.30
2019-06-26T21:08:14.356Z,98277.62
2019-06-26T21:10:46.642Z,98286.87
2019-06-26T21:13:19.820Z,98280.57
2019-06-26T21:15:53.044Z,98281.77
2019-06-26T21:18:25.757Z,98292.39
2019-06-26T21:20:58.003Z,98293.88
2019-06-26T21:23:31.033Z,98293.48
2019-06-26T21:26:04.412Z,98297.52
2019-06-26T21:28:38.026Z,98294.15
2019-06-26T21:31:10.268Z,98296.35
2019-06-26T21:33:42.516Z,98298.67
2019-06-26T21:36:15.419Z,98300.78
2019-06-26T21:38:47.658Z,98301.13
2019-06-26T21:41:20.790Z,98303.95
2019-06-26T21:43:53.521Z,98298.97
2019-06-26T21:46:25.765Z,98304.61
2019-06-26T21:48:58.660Z,98304.83
2019-06-26T21:51:30.908Z,98303.77
2019-06-26T21:54:03.150Z,98301.19
2019-06-26T21:56:35.383Z,98304.17
2019-06-26T21:59:08.076Z,98304.84
2019-06-26T22:01:40.870Z,98305.92
2019-06-26T22:04:13.716Z,98304.64
2019-06-26T22:06:46.330Z,98302.53
2019-06-26T22:09:19.306Z,98303.19
2019-06-26T22:11:52.036Z,98302.33
2019-06-26T22:14:25.049Z,98303.01
2019-06-26T22:16:57.397Z,98299.67
2019-06-26T22:19:30.105Z,98303.39
2019-06-26T22:22:02.375Z,98304.30
2019-06-26T22:24:34.620Z,98307.18
2019-06-26T22:27:07.064Z,98307.78
2019-06-26T22:29:39.748Z,98307.48
2019-06-26T22:32:12.005Z,98311.05
2019-06-26T22:34:48.030Z,98305.55
2019-06-26T22:37:18.549Z,98298.91
2019-06-26T22:39:50.794Z,98299.59
2019-06-26T22:42:23.029Z,98298.59
2019-06-26T22:44:55.267Z,98300.51
2019-06-26T22:47:27.617Z,98302.40
2019-06-26T22:49:59.954Z,98307.50
2019-06-26T22:52:32.216Z,98305.95
2019-06-26T22:55:04.593Z,98308.31
2019-06-26T22:57:37.293Z,98309.34
2019-06-26T23:00:11.764Z,98308.55
2019-06-26T23:02:44.838Z,98305.16
2019-06-26T23:05:18.533Z,98307.24
2019-06-26T23:07:50.779Z,98320.62
2019-06-26T23:10:24.158Z,98322.38
2019-06-26T23:12:56.536Z,98321.23
2019-06-26T23:15:28.937Z,98323.53
2019-06-26T23:18:01.183Z,98323.89
2019-06-26T23:20:33.531Z,98330.11
2019-06-26T23:23:05.799Z,98331.91
2019-06-26T23:25:38.939Z,98332.09
2019-06-26T23:28:11.639Z,98326.24
2019-06-26T23:30:43.897Z,98324.33
2019-06-26T23:33:16.376Z,98317.72
2019-06-26T23:35:48.955Z,98314.63
2019-06-26T23:38:22.023Z,98310.08
2019-06-26T23:40:54.286Z,98308.30
2019-06-26T23:43:27.092Z,98315.95
2019-06-26T23:45:59.442Z,98317.09
2019-06-26T23:48:31.687Z,98315.73
2019-06-26T23:51:03.939Z,98317.81
2019-06-26T23:53:36.196Z,98322.41
2019-06-26T23:56:08.447Z,98320.25
2019-06-26T23:58:40.693Z,98321.44
